Andover, CT (06232)

7:33 PM EDT on April 30, 2017 (GMT -0400)
Shoddy Mill Rd Andover CT | | Change Station

Elev 538 ft 41.74 °N, 72.40 °W | Updated 22 seconds ago

Overcast
Overcast
50.0 °F
Feels Like 50.0 °F
N
0.0
Wind Variable Wind from SW
Gusts 4.0 mph

Today
High -- | Low -- °F
--% Chance of Precip.
Yesterday
High -- | Low -- °F
Precip. -- in
Pressure 30.24 in
Visibility 10.0 miles
Clouds Overcast 4100 ft
Dew Point 38 °F
Humidity 64%
Rainfall 0.00 in
Snow Depth Not available.
5:47 AM 7:46 PM
Waxing Crescent, 27% visible
METAR KIJD 302252Z AUTO 20009KT 10SM OVC041 12/04 A3024 RMK AO2 SLP239 T01220039
Pressure 30.24 in
Visibility 10.0 miles
Clouds Overcast 4100 ft
Dew Point 38 °F
Humidity 64%
Rainfall 0.00 in
Snow Depth Not available.
5:47 AM 7:46 PM
Waxing Crescent, 27% visible
METAR KIJD 302252Z AUTO 20009KT 10SM OVC041 12/04 A3024 RMK AO2 SLP239 T01220039

Get Severe Weather Alerts

Thanks for signing up!

Be on the lookout for a verification email in your inbox.

You'll start receiving the daily forecast at 8 AM.

×

10-Day Weather Forecast

Almanac

Astronomy

Apr. 30, 2017 Rise Set
Actual Time
Civil Twilight
Nautical Twilight
Astronomical Twilight
Moon
Length of Visible Light
Length of Day
Tomorrow will be .
, % of the Moon is Illuminated

Today's Extremes

State Highs State Lows

Community

WunderPhotos

WunderBlog® & News

Nearby

Air Quality

  Air Quality AQ Index Pollutant
Not available.

Snow Depth

Station Depth Elevation

Earthquake Activity

City Distance Mag. Time & Date
Minimum magnitude displayed is 2.5.

Coastal Water Temperatures

Place Temperature

Stations

Nearby Weather Stations

Station Location Temp. Windchill Dew Point Humidity Wind Precip. Elev Updated Type
                   

Watches & Warnings

There are currently no watches in effect.